sensor_id;sensor_type;location;lat;lon;timestamp;pressure;altitude;pressure_sealevel;temperature;humidity
11806;BME280;5960;42.602;23.482;2022-12-07T00:01:16;93348.03;;;5.90;85.26
11806;BME280;5960;42.602;23.482;2022-12-07T00:03:44;93356.06;;;5.97;84.61
11806;BME280;5960;42.602;23.482;2022-12-07T00:06:14;93357.56;;;6.08;84.43
11806;BME280;5960;42.602;23.482;2022-12-07T00:08:42;93355.25;;;6.13;84.59
11806;BME280;5960;42.602;23.482;2022-12-07T00:11:10;93357.53;;;6.16;83.63
11806;BME280;5960;42.602;23.482;2022-12-07T00:13:38;93356.56;;;6.25;84.02
11806;BME280;5960;42.602;23.482;2022-12-07T00:16:07;93355.56;;;6.26;82.86
11806;BME280;5960;42.602;23.482;2022-12-07T00:18:34;93351.97;;;6.19;83.75
11806;BME280;5960;42.602;23.482;2022-12-07T00:21:02;93351.34;;;6.09;83.09
11806;BME280;5960;42.602;23.482;2022-12-07T00:23:30;93349.22;;;6.12;84.11
11806;BME280;5960;42.602;23.482;2022-12-07T00:26:03;93347.56;;;6.03;83.68
11806;BME280;5960;42.602;23.482;2022-12-07T00:28:30;93339.53;;;5.96;83.57
11806;BME280;5960;42.602;23.482;2022-12-07T00:31:01;93345.25;;;5.92;83.90
11806;BME280;5960;42.602;23.482;2022-12-07T00:33:28;93343.59;;;5.99;83.13
11806;BME280;5960;42.602;23.482;2022-12-07T00:35:55;93341.34;;;6.04;83.89
11806;BME280;5960;42.602;23.482;2022-12-07T00:38:22;93341.81;;;5.99;83.24
11806;BME280;5960;42.602;23.482;2022-12-07T00:40:58;93335.94;;;5.97;82.90
11806;BME280;5960;42.602;23.482;2022-12-07T00:43:26;93345.25;;;5.92;83.37
11806;BME280;5960;42.602;23.482;2022-12-07T00:45:53;93345.09;;;5.77;84.42
11806;BME280;5960;42.602;23.482;2022-12-07T00:48:20;93338.72;;;5.79;83.81
11806;BME280;5960;42.602;23.482;2022-12-07T00:50:48;93337.41;;;5.92;84.01
11806;BME280;5960;42.602;23.482;2022-12-07T00:53:16;93341.16;;;5.89;83.80
11806;BME280;5960;42.602;23.482;2022-12-07T00:55:43;93338.38;;;5.82;84.79
11806;BME280;5960;42.602;23.482;2022-12-07T00:58:12;93337.09;;;5.86;84.20
11806;BME280;5960;42.602;23.482;2022-12-07T01:00:41;93341.34;;;5.87;84.80
11806;BME280;5960;42.602;23.482;2022-12-07T01:03:10;93334.63;;;5.93;83.74
11806;BME280;5960;42.602;23.482;2022-12-07T01:05:37;93333.81;;;5.68;83.79
11806;BME280;5960;42.602;23.482;2022-12-07T01:08:04;93330.06;;;5.70;84.65
11806;BME280;5960;42.602;23.482;2022-12-07T01:10:32;93326.13;;;5.66;85.31
11806;BME280;5960;42.602;23.482;2022-12-07T01:12:59;93332.50;;;5.64;86.14
11806;BME280;5960;42.602;23.482;2022-12-07T01:15:27;93329.56;;;5.67;85.25
11806;BME280;5960;42.602;23.482;2022-12-07T01:17:54;93331.53;;;5.90;85.43
11806;BME280;5960;42.602;23.482;2022-12-07T01:20:21;93327.13;;;5.98;84.67
11806;BME280;5960;42.602;23.482;2022-12-07T01:22:48;93326.00;;;6.01;83.79
11806;BME280;5960;42.602;23.482;2022-12-07T01:25:14;93320.06;;;5.99;83.63
11806;BME280;5960;42.602;23.482;2022-12-07T01:27:41;93313.91;;;6.00;83.46
11806;BME280;5960;42.602;23.482;2022-12-07T01:30:10;93315.00;;;5.89;83.64
11806;BME280;5960;42.602;23.482;2022-12-07T01:32:38;93316.00;;;5.96;84.59
11806;BME280;5960;42.602;23.482;2022-12-07T01:35:05;93316.00;;;5.96;85.12
11806;BME280;5960;42.602;23.482;2022-12-07T01:37:34;93322.06;;;5.97;84.09
11806;BME280;5960;42.602;23.482;2022-12-07T01:40:03;93317.63;;;5.97;83.40
11806;BME280;5960;42.602;23.482;2022-12-07T01:42:30;93321.56;;;5.93;83.81
11806;BME280;5960;42.602;23.482;2022-12-07T01:45:36;93322.53;;;5.92;83.84
11806;BME280;5960;42.602;23.482;2022-12-07T01:48:05;93321.94;;;6.07;82.93
11806;BME280;5960;42.602;23.482;2022-12-07T01:50:33;93321.09;;;5.98;82.98
11806;BME280;5960;42.602;23.482;2022-12-07T01:53:02;93314.88;;;5.91;84.15
11806;BME280;5960;42.602;23.482;2022-12-07T01:55:30;93303.28;;;5.85;84.26
11806;BME280;5960;42.602;23.482;2022-12-07T01:57:57;93299.03;;;5.84;83.38
11806;BME280;5960;42.602;23.482;2022-12-07T02:00:24;93300.66;;;5.85;85.02
11806;BME280;5960;42.602;23.482;2022-12-07T02:02:54;93301.63;;;5.92;84.29
11806;BME280;5960;42.602;23.482;2022-12-07T02:05:24;93308.66;;;5.92;84.71
11806;BME280;5960;42.602;23.482;2022-12-07T02:07:53;93306.38;;;5.97;84.43
11806;BME280;5960;42.602;23.482;2022-12-07T02:10:23;93299.00;;;5.92;84.17
11806;BME280;5960;42.602;23.482;2022-12-07T02:12:54;93296.41;;;5.92;83.54
11806;BME280;5960;42.602;23.482;2022-12-07T02:15:26;93291.84;;;6.02;83.74
11806;BME280;5960;42.602;23.482;2022-12-07T02:18:01;93296.91;;;6.04;83.90
11806;BME280;5960;42.602;23.482;2022-12-07T02:20:38;93299.66;;;5.94;83.69
11806;BME280;5960;42.602;23.482;2022-12-07T02:26:19;93289.69;;;5.81;83.51
11806;BME280;5960;42.602;23.482;2022-12-07T02:29:10;93297.53;;;5.81;83.98
11806;BME280;5960;42.602;23.482;2022-12-07T02:31:43;93292.00;;;5.68;85.06
11806;BME280;5960;42.602;23.482;2022-12-07T02:34:16;93292.16;;;5.75;84.94
11806;BME280;5960;42.602;23.482;2022-12-07T02:36:52;93286.28;;;5.81;84.44
11806;BME280;5960;42.602;23.482;2022-12-07T02:39:25;93289.03;;;5.79;84.72
11806;BME280;5960;42.602;23.482;2022-12-07T02:41:57;93287.91;;;5.73;84.74
11806;BME280;5960;42.602;23.482;2022-12-07T02:44:28;93288.25;;;5.79;84.30
11806;BME280;5960;42.602;23.482;2022-12-07T02:46:59;93277.78;;;5.70;84.26
11806;BME280;5960;42.602;23.482;2022-12-07T02:49:28;93279.09;;;5.75;84.41
11806;BME280;5960;42.602;23.482;2022-12-07T02:51:55;93268.97;;;5.71;84.18
11806;BME280;5960;42.602;23.482;2022-12-07T02:54:22;93267.66;;;5.51;85.15
11806;BME280;5960;42.602;23.482;2022-12-07T02:56:52;93277.97;;;5.52;84.87
11806;BME280;5960;42.602;23.482;2022-12-07T02:59:28;93282.34;;;5.52;85.94
11806;BME280;5960;42.602;23.482;2022-12-07T03:02:06;93282.38;;;5.60;85.77
11806;BME280;5960;42.602;23.482;2022-12-07T03:04:42;93283.66;;;5.64;85.50
11806;BME280;5960;42.602;23.482;2022-12-07T03:07:16;93279.44;;;5.63;85.99
11806;BME280;5960;42.602;23.482;2022-12-07T03:09:51;93273.88;;;5.75;84.76
11806;BME280;5960;42.602;23.482;2022-12-07T03:12:21;93267.00;;;5.73;84.53
11806;BME280;5960;42.602;23.482;2022-12-07T03:14:56;93263.72;;;5.47;85.04
11806;BME280;5960;42.602;23.482;2022-12-07T03:17:28;93258.69;;;5.45;85.12
11806;BME280;5960;42.602;23.482;2022-12-07T03:19:58;93272.38;;;5.39;85.57
11806;BME280;5960;42.602;23.482;2022-12-07T03:22:29;93269.94;;;5.29;85.78
11806;BME280;5960;42.602;23.482;2022-12-07T03:24:59;93270.41;;;5.24;86.59
11806;BME280;5960;42.602;23.482;2022-12-07T03:27:30;93267.63;;;5.26;86.57
11806;BME280;5960;42.602;23.482;2022-12-07T03:30:02;93260.63;;;5.35;87.07
11806;BME280;5960;42.602;23.482;2022-12-07T03:32:33;93259.97;;;5.33;87.24
11806;BME280;5960;42.602;23.482;2022-12-07T03:35:05;93258.81;;;5.43;86.03
11806;BME280;5960;42.602;23.482;2022-12-07T03:37:38;93254.56;;;5.42;85.11
11806;BME280;5960;42.602;23.482;2022-12-07T03:40:11;93250.31;;;5.41;85.50
11806;BME280;5960;42.602;23.482;2022-12-07T03:42:40;93248.88;;;5.39;85.18
11806;BME280;5960;42.602;23.482;2022-12-07T03:45:09;93252.78;;;5.35;85.45
11806;BME280;5960;42.602;23.482;2022-12-07T03:47:43;93247.25;;;5.30;85.35
11806;BME280;5960;42.602;23.482;2022-12-07T03:50:17;93245.94;;;5.25;86.24
11806;BME280;5960;42.602;23.482;2022-12-07T03:52:50;93253.63;;;5.35;86.53
11806;BME280;5960;42.602;23.482;2022-12-07T03:55:22;93264.06;;;5.35;85.86
11806;BME280;5960;42.602;23.482;2022-12-07T03:57:53;93260.44;;;5.28;85.91
11806;BME280;5960;42.602;23.482;2022-12-07T04:00:23;93268.78;;;5.40;85.39
11806;BME280;5960;42.602;23.482;2022-12-07T04:02:51;93260.47;;;5.45;85.85
11806;BME280;5960;42.602;23.482;2022-12-07T04:05:19;93259.00;;;5.42;84.85
11806;BME280;5960;42.602;23.482;2022-12-07T04:07:45;93262.91;;;5.30;85.55
11806;BME280;5960;42.602;23.482;2022-12-07T04:10:12;93263.22;;;5.35;86.20
11806;BME280;5960;42.602;23.482;2022-12-07T04:12:39;93252.63;;;5.45;84.67
11806;BME280;5960;42.602;23.482;2022-12-07T04:15:07;93253.94;;;5.40;85.22
11806;BME280;5960;42.602;23.482;2022-12-07T04:17:36;93253.44;;;5.37;85.07
11806;BME280;5960;42.602;23.482;2022-12-07T04:20:03;93262.09;;;5.37;85.55
11806;BME280;5960;42.602;23.482;2022-12-07T04:22:30;93257.53;;;5.31;85.76
11806;BME280;5960;42.602;23.482;2022-12-07T04:24:57;93255.56;;;5.33;86.57
11806;BME280;5960;42.602;23.482;2022-12-07T04:27:24;93251.16;;;5.25;85.62
11806;BME280;5960;42.602;23.482;2022-12-07T04:29:51;93249.03;;;5.29;86.42
11806;BME280;5960;42.602;23.482;2022-12-07T04:32:17;93250.97;;;5.27;85.05
11806;BME280;5960;42.602;23.482;2022-12-07T04:34:45;93252.94;;;5.41;85.33
11806;BME280;5960;42.602;23.482;2022-12-07T04:37:12;93257.19;;;5.26;84.28
11806;BME280;5960;42.602;23.482;2022-12-07T04:39:39;93251.13;;;5.09;85.11
11806;BME280;5960;42.602;23.482;2022-12-07T04:42:06;93250.31;;;5.08;84.94
11806;BME280;5960;42.602;23.482;2022-12-07T04:44:33;93266.91;;;4.99;84.99
11806;BME280;5960;42.602;23.482;2022-12-07T04:46:59;93266.59;;;4.94;85.81
11806;BME280;5960;42.602;23.482;2022-12-07T04:49:26;93266.28;;;5.05;86.24
11806;BME280;5960;42.602;23.482;2022-12-07T04:51:54;93255.22;;;5.11;86.39
11806;BME280;5960;42.602;23.482;2022-12-07T04:54:21;93263.38;;;5.17;86.51
11806;BME280;5960;42.602;23.482;2022-12-07T04:56:48;93264.50;;;5.14;85.90
11806;BME280;5960;42.602;23.482;2022-12-07T04:59:15;93266.00;;;5.25;86.48
11806;BME280;5960;42.602;23.482;2022-12-07T05:01:43;93270.75;;;5.30;85.83
11806;BME280;5960;42.602;23.482;2022-12-07T05:04:10;93264.72;;;5.37;85.45
11806;BME280;5960;42.602;23.482;2022-12-07T05:06:37;93261.09;;;5.30;85.64
11806;BME280;5960;42.602;23.482;2022-12-07T05:09:05;93262.25;;;5.27;85.76
11806;BME280;5960;42.602;23.482;2022-12-07T05:11:32;93270.09;;;5.27;86.17
11806;BME280;5960;42.602;23.482;2022-12-07T05:14:06;93265.19;;;5.33;84.78
11806;BME280;5960;42.602;23.482;2022-12-07T05:16:34;93270.91;;;5.36;85.51
11806;BME280;5960;42.602;23.482;2022-12-07T05:19:01;93265.69;;;5.36;84.54
11806;BME280;5960;42.602;23.482;2022-12-07T05:21:28;93256.88;;;5.29;85.07
11806;BME280;5960;42.602;23.482;2022-12-07T05:23:54;93248.84;;;5.31;84.31
11806;BME280;5960;42.602;23.482;2022-12-07T05:26:22;93250.97;;;5.27;84.20
11806;BME280;5960;42.602;23.482;2022-12-07T05:28:53;93252.94;;;5.25;84.94
11806;BME280;5960;42.602;23.482;2022-12-07T05:31:20;93252.44;;;5.21;85.75
11806;BME280;5960;42.602;23.482;2022-12-07T05:33:47;93258.66;;;5.20;85.35
11806;BME280;5960;42.602;23.482;2022-12-07T05:36:14;93266.63;;;5.19;86.15
11806;BME280;5960;42.602;23.482;2022-12-07T05:38:41;93262.91;;;5.30;85.00
11806;BME280;5960;42.602;23.482;2022-12-07T05:41:09;93265.19;;;5.33;84.25
11806;BME280;5960;42.602;23.482;2022-12-07T05:44:00;93265.03;;;5.18;84.32
11806;BME280;5960;42.602;23.482;2022-12-07T05:46:27;93274.44;;;5.02;85.34
11806;BME280;5960;42.602;23.482;2022-12-07T05:48:54;93275.72;;;4.98;85.18
11806;BME280;5960;42.602;23.482;2022-12-07T05:51:21;93280.63;;;4.93;85.39
11806;BME280;5960;42.602;23.482;2022-12-07T05:53:47;93267.59;;;4.93;86.24
11806;BME280;5960;42.602;23.482;2022-12-07T05:56:14;93271.31;;;4.90;85.93
11806;BME280;5960;42.602;23.482;2022-12-07T05:58:41;93262.69;;;4.98;86.13
11806;BME280;5960;42.602;23.482;2022-12-07T06:01:27;93254.38;;;5.03;85.64
11806;BME280;5960;42.602;23.482;2022-12-07T06:03:54;93245.41;;;5.05;85.59
11806;BME280;5960;42.602;23.482;2022-12-07T06:06:20;93252.41;;;4.96;86.99
11806;BME280;5960;42.602;23.482;2022-12-07T06:08:47;93253.88;;;4.99;87.23
11806;BME280;5960;42.602;23.482;2022-12-07T06:11:14;93254.25;;;5.12;86.51
11806;BME280;5960;42.602;23.482;2022-12-07T06:13:58;93254.72;;;5.16;86.82
11806;BME280;5960;42.602;23.482;2022-12-07T06:16:24;93260.78;;;5.17;85.86
11806;BME280;5960;42.602;23.482;2022-12-07T06:18:52;93261.41;;;5.19;86.95
11806;BME280;5960;42.602;23.482;2022-12-07T06:21:19;93261.44;;;5.43;86.31
11806;BME280;5960;42.602;23.482;2022-12-07T06:23:46;93267.66;;;5.51;84.58
11806;BME280;5960;42.602;23.482;2022-12-07T06:26:13;93261.94;;;5.47;84.24
11806;BME280;5960;42.602;23.482;2022-12-07T06:28:40;93266.69;;;5.60;84.22
11806;BME280;5960;42.602;23.482;2022-12-07T06:31:07;93256.25;;;5.60;84.48
11806;BME280;5960;42.602;23.482;2022-12-07T06:33:34;93254.44;;;5.52;83.87
11806;BME280;5960;42.602;23.482;2022-12-07T06:36:02;93256.88;;;5.37;85.41
11806;BME280;5960;42.602;23.482;2022-12-07T06:38:29;93261.94;;;5.47;85.32
11806;BME280;5960;42.602;23.482;2022-12-07T06:40:56;93262.59;;;5.57;85.79
11806;BME280;5960;42.602;23.482;2022-12-07T06:43:23;93268.97;;;5.55;85.10
11806;BME280;5960;42.602;23.482;2022-12-07T06:45:49;93276.00;;;5.63;85.75
11806;BME280;5960;42.602;23.482;2022-12-07T06:48:16;93275.00;;;5.64;85.54
11806;BME280;5960;42.602;23.482;2022-12-07T06:50:44;93270.59;;;5.72;86.04
11806;BME280;5960;42.602;23.482;2022-12-07T06:53:13;93273.69;;;6.01;85.44
11806;BME280;5960;42.602;23.482;2022-12-07T06:55:39;93275.16;;;6.12;84.62
11806;BME280;5960;42.602;23.482;2022-12-07T06:58:06;93279.72;;;6.18;83.83
11806;BME280;5960;42.602;23.482;2022-12-07T07:00:33;93281.66;;;6.32;83.82
11806;BME280;5960;42.602;23.482;2022-12-07T07:03:00;93271.69;;;6.36;83.84
11806;BME280;5960;42.602;23.482;2022-12-07T07:05:27;93276.06;;;6.44;83.21
11806;BME280;5960;42.602;23.482;2022-12-07T07:07:54;93271.16;;;6.49;82.49
11806;BME280;5960;42.602;23.482;2022-12-07T07:10:22;93269.13;;;6.59;82.78
11806;BME280;5960;42.602;23.482;2022-12-07T07:12:48;93270.75;;;6.69;83.06
11806;BME280;5960;42.602;23.482;2022-12-07T07:15:15;93269.78;;;6.61;81.73
11806;BME280;5960;42.602;23.482;2022-12-07T07:17:42;93269.63;;;6.63;82.80
11806;BME280;5960;42.602;23.482;2022-12-07T07:20:10;93274.97;;;6.78;83.17
11806;BME280;5960;42.602;23.482;2022-12-07T07:22:37;93279.78;;;6.98;82.26
11806;BME280;5960;42.602;23.482;2022-12-07T07:25:04;93278.25;;;7.12;82.13
11806;BME280;5960;42.602;23.482;2022-12-07T07:27:32;93281.63;;;7.20;81.64
11806;BME280;5960;42.602;23.482;2022-12-07T07:29:59;93283.06;;;7.31;81.12
11806;BME280;5960;42.602;23.482;2022-12-07T07:32:25;93287.31;;;7.32;80.59
11806;BME280;5960;42.602;23.482;2022-12-07T07:34:53;93283.13;;;7.46;80.03
11806;BME280;5960;42.602;23.482;2022-12-07T07:37:20;93281.25;;;7.55;80.27
11806;BME280;5960;42.602;23.482;2022-12-07T07:39:46;93289.16;;;7.47;79.60
11806;BME280;5960;42.602;23.482;2022-12-07T07:42:14;93289.13;;;7.55;79.09
11806;BME280;5960;42.602;23.482;2022-12-07T07:44:42;93294.13;;;7.65;78.85
11806;BME280;5960;42.602;23.482;2022-12-07T07:47:09;93288.19;;;7.71;78.45
11806;BME280;5960;42.602;23.482;2022-12-07T07:49:35;93291.56;;;7.57;78.77
11806;BME280;5960;42.602;23.482;2022-12-07T07:52:02;93294.63;;;7.60;79.08
11806;BME280;5960;42.602;23.482;2022-12-07T07:54:29;93289.28;;;7.77;79.18
11806;BME280;5960;42.602;23.482;2022-12-07T07:56:56;93286.19;;;7.96;79.50
11806;BME280;5960;42.602;23.482;2022-12-07T07:59:23;93283.72;;;8.33;79.20
11806;BME280;5960;42.602;23.482;2022-12-07T08:01:51;93283.84;;;8.70;76.43
11806;BME280;5960;42.602;23.482;2022-12-07T08:04:18;93279.47;;;8.92;74.95
11806;BME280;5960;42.602;23.482;2022-12-07T08:06:44;93274.38;;;9.21;74.06
11806;BME280;5960;42.602;23.482;2022-12-07T08:09:11;93277.34;;;9.54;72.78
11806;BME280;5960;42.602;23.482;2022-12-07T08:11:38;93281.19;;;10.02;71.69
11806;BME280;5960;42.602;23.482;2022-12-07T08:14:05;93283.28;;;10.35;70.96
11806;BME280;5960;42.602;23.482;2022-12-07T08:16:32;93289.34;;;10.57;68.97
11806;BME280;5960;42.602;23.482;2022-12-07T08:19:00;93293.88;;;10.70;67.61
11806;BME280;5960;42.602;23.482;2022-12-07T08:21:26;93292.69;;;10.73;67.32
11806;BME280;5960;42.602;23.482;2022-12-07T08:23:53;93289.56;;;10.97;66.97
11806;BME280;5960;42.602;23.482;2022-12-07T08:26:20;93290.72;;;11.30;65.52
11806;BME280;5960;42.602;23.482;2022-12-07T08:28:47;93289.72;;;11.38;64.92
11806;BME280;5960;42.602;23.482;2022-12-07T08:31:16;93288.72;;;11.46;65.86
11806;BME280;5960;42.602;23.482;2022-12-07T08:33:45;93289.13;;;11.42;65.74
11806;BME280;5960;42.602;23.482;2022-12-07T08:36:13;93292.13;;;11.33;65.08
11806;BME280;5960;42.602;23.482;2022-12-07T08:38:41;93274.94;;;10.95;66.71
11806;BME280;5960;42.602;23.482;2022-12-07T08:41:08;93275.09;;;10.80;67.60
11806;BME280;5960;42.602;23.482;2022-12-07T08:43:36;93274.88;;;10.81;67.94
11806;BME280;5960;42.602;23.482;2022-12-07T08:46:07;93280.56;;;10.85;68.36
11806;BME280;5960;42.602;23.482;2022-12-07T08:48:38;93276.34;;;11.39;68.01
11806;BME280;5960;42.602;23.482;2022-12-07T08:51:06;93281.75;;;12.00;65.14
11806;BME280;5960;42.602;23.482;2022-12-07T08:53:35;93272.81;;;12.01;64.74
11806;BME280;5960;42.602;23.482;2022-12-07T08:56:04;93283.59;;;12.06;64.72
11806;BME280;5960;42.602;23.482;2022-12-07T08:58:32;93283.19;;;12.23;64.10
11806;BME280;5960;42.602;23.482;2022-12-07T09:00:59;93281.56;;;12.22;62.62
11806;BME280;5960;42.602;23.482;2022-12-07T09:03:26;93270.38;;;11.99;63.13
11806;BME280;5960;42.602;23.482;2022-12-07T09:05:53;93263.81;;;11.62;64.28
11806;BME280;5960;42.602;23.482;2022-12-07T09:08:21;93266.81;;;11.38;65.00
11806;BME280;5960;42.602;23.482;2022-12-07T09:10:50;93258.31;;;11.50;66.05
11806;BME280;5960;42.602;23.482;2022-12-07T09:13:16;93255.28;;;11.66;65.74
11806;BME280;5960;42.602;23.482;2022-12-07T09:15:43;93258.34;;;11.90;65.62
11806;BME280;5960;42.602;23.482;2022-12-07T09:18:10;93256.53;;;12.44;64.58
11806;BME280;5960;42.602;23.482;2022-12-07T09:20:37;93247.56;;;12.66;62.55
11806;BME280;5960;42.602;23.482;2022-12-07T09:23:05;93250.69;;;12.42;61.64
11806;BME280;5960;42.602;23.482;2022-12-07T09:25:32;93253.72;;;12.19;62.80
11806;BME280;5960;42.602;23.482;2022-12-07T09:28:01;93248.47;;;12.12;63.73
11806;BME280;5960;42.602;23.482;2022-12-07T09:30:28;93251.25;;;12.64;63.53
11806;BME280;5960;42.602;23.482;2022-12-07T09:32:55;93238.50;;;13.52;61.22
11806;BME280;5960;42.602;23.482;2022-12-07T09:35:24;93234.81;;;14.43;58.66
11806;BME280;5960;42.602;23.482;2022-12-07T09:37:51;93229.94;;;15.02;55.88
11806;BME280;5960;42.602;23.482;2022-12-07T09:40:20;93228.44;;;15.25;55.38
11806;BME280;5960;42.602;23.482;2022-12-07T09:42:49;93223.38;;;15.54;53.30
11806;BME280;5960;42.602;23.482;2022-12-07T09:45:22;93220.03;;;15.59;53.43
11806;BME280;5960;42.602;23.482;2022-12-07T09:47:50;93222.63;;;15.16;54.02
11806;BME280;5960;42.602;23.482;2022-12-07T09:50:20;93225.78;;;14.88;55.25
11806;BME280;5960;42.602;23.482;2022-12-07T09:52:48;93218.75;;;14.56;56.04
11806;BME280;5960;42.602;23.482;2022-12-07T09:55:16;93212.53;;;14.25;56.51
11806;BME280;5960;42.602;23.482;2022-12-07T09:57:46;93209.72;;;13.95;57.98
11806;BME280;5960;42.602;23.482;2022-12-07T10:02:47;93213.81;;;13.20;59.73
11806;BME280;5960;42.602;23.482;2022-12-07T10:05:16;93217.00;;;12.97;60.49
11806;BME280;5960;42.602;23.482;2022-12-07T10:07:44;93217.53;;;12.53;61.85
11806;BME280;5960;42.602;23.482;2022-12-07T10:10:15;93208.41;;;12.29;62.64
11806;BME280;5960;42.602;23.482;2022-12-07T10:12:53;93203.75;;;12.11;63.87
11806;BME280;5960;42.602;23.482;2022-12-07T10:15:21;93197.66;;;12.24;64.45
11806;BME280;5960;42.602;23.482;2022-12-07T10:17:51;93200.56;;;13.27;63.88
11806;BME280;5960;42.602;23.482;2022-12-07T10:20:21;93197.59;;;14.75;59.68
11806;BME280;5960;42.602;23.482;2022-12-07T10:22:56;93195.94;;;15.11;56.45
11806;BME280;5960;42.602;23.482;2022-12-07T10:25:26;93193.47;;;14.79;55.94
11806;BME280;5960;42.602;23.482;2022-12-07T10:28:02;93190.31;;;14.26;56.70
11806;BME280;5960;42.602;23.482;2022-12-07T10:30:29;93182.03;;;14.16;58.04
11806;BME280;5960;42.602;23.482;2022-12-07T10:32:59;93175.31;;;15.44;56.31
11806;BME280;5960;42.602;23.482;2022-12-07T10:35:27;93168.19;;;18.15;51.37
11806;BME280;5960;42.602;23.482;2022-12-07T10:37:55;93165.03;;;21.14;41.83
11806;BME280;5960;42.602;23.482;2022-12-07T10:40:27;93142.25;;;23.24;38.40
11806;BME280;5960;42.602;23.482;2022-12-07T10:43:01;93154.81;;;23.84;34.65
11806;BME280;5960;42.602;23.482;2022-12-07T10:45:28;93152.69;;;24.21;35.22
11806;BME280;5960;42.602;23.482;2022-12-07T10:48:01;93157.44;;;26.23;32.95
11806;BME280;5960;42.602;23.482;2022-12-07T10:50:41;93162.84;;;26.70;31.16
11806;BME280;5960;42.602;23.482;2022-12-07T10:53:24;93154.56;;;24.84;32.54
11806;BME280;5960;42.602;23.482;2022-12-07T10:56:02;93156.81;;;23.07;34.86
11806;BME280;5960;42.602;23.482;2022-12-07T10:58:47;93150.47;;;22.05;36.70
11806;BME280;5960;42.602;23.482;2022-12-07T11:01:24;93153.16;;;22.41;37.77
11806;BME280;5960;42.602;23.482;2022-12-07T11:04:11;93149.38;;;23.94;34.22
11806;BME280;5960;42.602;23.482;2022-12-07T11:06:47;93149.16;;;25.57;32.97
11806;BME280;5960;42.602;23.482;2022-12-07T11:09:34;93145.22;;;26.59;29.61
11806;BME280;5960;42.602;23.482;2022-12-07T11:12:10;93138.50;;;25.47;31.07
11806;BME280;5960;42.602;23.482;2022-12-07T11:14:45;93140.78;;;23.92;33.23
11806;BME280;5960;42.602;23.482;2022-12-07T11:17:21;93132.75;;;22.61;35.61
11806;BME280;5960;42.602;23.482;2022-12-07T11:20:02;93129.50;;;21.60;37.16
11806;BME280;5960;42.602;23.482;2022-12-07T11:22:38;93129.03;;;20.89;38.59
11806;BME280;5960;42.602;23.482;2022-12-07T11:25:18;93122.53;;;19.94;40.13
11806;BME280;5960;42.602;23.482;2022-12-07T11:27:50;93124.44;;;19.17;41.67
11806;BME280;5960;42.602;23.482;2022-12-07T11:30:23;93107.81;;;17.11;46.10
11806;BME280;5960;42.602;23.482;2022-12-07T11:33:04;93108.91;;;16.22;48.81
11806;BME280;5960;42.602;23.482;2022-12-07T11:35:44;93113.84;;;15.71;50.63
11806;BME280;5960;42.602;23.482;2022-12-07T11:38:15;93118.16;;;15.29;51.87
11806;BME280;5960;42.602;23.482;2022-12-07T11:40:45;93101.28;;;14.93;53.15
11806;BME280;5960;42.602;23.482;2022-12-07T11:43:20;93102.84;;;14.64;54.16
11806;BME280;5960;42.602;23.482;2022-12-07T11:45:53;93101.09;;;14.20;54.96
11806;BME280;5960;42.602;23.482;2022-12-07T11:48:27;93099.63;;;13.62;56.72
11806;BME280;5960;42.602;23.482;2022-12-07T11:50:59;93090.59;;;13.44;57.96
11806;BME280;5960;42.602;23.482;2022-12-07T11:53:31;93090.75;;;13.49;58.28
11806;BME280;5960;42.602;23.482;2022-12-07T11:56:04;93073.91;;;13.44;58.46
11806;BME280;5960;42.602;23.482;2022-12-07T11:58:44;93076.78;;;13.42;59.13
11806;BME280;5960;42.602;23.482;2022-12-07T12:01:37;93074.16;;;13.61;58.85
11806;BME280;5960;42.602;23.482;2022-12-07T12:04:16;93073.44;;;13.72;58.78
11806;BME280;5960;42.602;23.482;2022-12-07T12:06:46;93070.75;;;13.79;58.61
11806;BME280;5960;42.602;23.482;2022-12-07T12:09:15;93063.94;;;13.90;58.15
11806;BME280;5960;42.602;23.482;2022-12-07T12:11:59;93073.59;;;14.03;58.06
11806;BME280;5960;42.602;23.482;2022-12-07T12:14:46;93076.31;;;14.33;58.01
11806;BME280;5960;42.602;23.482;2022-12-07T12:17:41;93080.97;;;14.87;55.81
11806;BME280;5960;42.602;23.482;2022-12-07T12:20:19;93068.03;;;14.79;55.74
11806;BME280;5960;42.602;23.482;2022-12-07T12:22:53;93069.19;;;15.13;55.10
11806;BME280;5960;42.602;23.482;2022-12-07T12:25:23;93064.16;;;16.95;52.84
11806;BME280;5960;42.602;23.482;2022-12-07T12:27:53;93053.59;;;19.69;45.38
11806;BME280;5960;42.602;23.482;2022-12-07T12:30:34;93049.59;;;21.37;40.97
11806;BME280;5960;42.602;23.482;2022-12-07T12:33:04;93041.63;;;22.90;38.88
11806;BME280;5960;42.602;23.482;2022-12-07T12:35:34;93043.69;;;24.96;35.08
11806;BME280;5960;42.602;23.482;2022-12-07T12:38:29;93026.56;;;26.16;32.75
11806;BME280;5960;42.602;23.482;2022-12-07T12:40:56;93037.47;;;27.50;30.06
11806;BME280;5960;42.602;23.482;2022-12-07T12:46:48;93028.50;;;29.30;26.92
11806;BME280;5960;42.602;23.482;2022-12-07T12:49:42;93033.06;;;30.53;26.43
11806;BME280;5960;42.602;23.482;2022-12-07T12:55:15;93040.31;;;31.47;24.90
11806;BME280;5960;42.602;23.482;2022-12-07T12:57:47;93040.28;;;31.77;23.76
11806;BME280;5960;42.602;23.482;2022-12-07T13:00:19;93033.94;;;32.07;23.72
11806;BME280;5960;42.602;23.482;2022-12-07T13:02:50;93046.81;;;32.52;23.12
11806;BME280;5960;42.602;23.482;2022-12-07T13:05:20;93038.72;;;32.44;23.57
11806;BME280;5960;42.602;23.482;2022-12-07T13:08:05;93033.72;;;32.33;23.32
11806;BME280;5960;42.602;23.482;2022-12-07T13:10:44;93022.81;;;32.46;23.15
11806;BME280;5960;42.602;23.482;2022-12-07T13:13:38;93036.03;;;32.56;22.44
11806;BME280;5960;42.602;23.482;2022-12-07T13:16:37;93023.06;;;32.53;23.03
11806;BME280;5960;42.602;23.482;2022-12-07T13:19:31;93019.53;;;31.43;23.17
11806;BME280;5960;42.602;23.482;2022-12-07T13:22:39;93028.00;;;27.61;27.06
11806;BME280;5960;42.602;23.482;2022-12-07T13:25:09;93034.31;;;24.93;29.99
11806;BME280;5960;42.602;23.482;2022-12-07T13:27:40;93035.06;;;23.12;32.94
11806;BME280;5960;42.602;23.482;2022-12-07T13:30:13;93034.31;;;21.42;35.50
11806;BME280;5960;42.602;23.482;2022-12-07T13:32:41;93036.75;;;20.01;38.18
11806;BME280;5960;42.602;23.482;2022-12-07T13:35:27;93030.75;;;18.69;41.03
11806;BME280;5960;42.602;23.482;2022-12-07T13:37:54;93038.94;;;17.83;43.06